Castle Hill, Maine
Current Conditions -  °F | °C
As of 2:55 AM on Wednesday 26 Nov 2014 (Local Time) from KPQI Reporting Station
Clear Clear  
Wind Chill: 32°   Ceiling: Unl
Heat Index: 39°   Visibility: 10mi
Dew Point: 21°   Wind: 10mph
Humidity: 49%   Direction: 250°WSW
Pressure: 29.99"   Gusts: 22mph
Location:  46.5489°N, 68.172°W
Report Text: KPQI 260755Z AUTO 25009G19KT 220V280 10SM CLR 04/M06 A2999 RMK AO1
Loading
Personal Weather Stations






























Interactive Weather Map New forecast layout! Learn more

10-Day Weather Forecast

Advertisements
Track Severe Weather on mobile